createdAt,value
2023-05-02T00:00:44.727Z,790.30
2023-05-02T00:01:44.713Z,789.30
2023-05-02T00:02:44.811Z,778.50
2023-05-02T00:03:44.755Z,786.00
2023-05-02T00:04:44.684Z,792.40
2023-05-02T00:05:44.654Z,796.60
2023-05-02T00:06:44.699Z,790.90
2023-05-02T00:07:44.623Z,795.20
2023-05-02T00:08:44.618Z,788.60
2023-05-02T00:09:44.623Z,785.30
2023-05-02T00:10:44.613Z,792.50
2023-05-02T00:11:44.621Z,784.00
2023-05-02T00:12:44.571Z,778.80
2023-05-02T00:13:44.541Z,792.80
2023-05-02T00:14:44.551Z,785.40
2023-05-02T00:15:44.550Z,788.30
2023-05-02T00:16:44.631Z,783.90
2023-05-02T00:17:44.595Z,789.60
2023-05-02T00:18:44.489Z,783.40
2023-05-02T00:19:44.482Z,793.20
2023-05-02T00:20:44.460Z,792.70
2023-05-02T00:21:44.482Z,793.90
2023-05-02T00:22:44.451Z,797.20
2023-05-02T00:23:44.430Z,795.30
2023-05-02T00:24:44.423Z,795.90
2023-05-02T00:25:44.425Z,797.60
2023-05-02T00:26:44.462Z,796.60
2023-05-02T00:27:44.396Z,791.00
2023-05-02T00:28:44.380Z,799.30
2023-05-02T00:29:44.377Z,798.60
2023-05-02T00:30:44.394Z,796.40
2023-05-02T00:31:44.413Z,783.80
2023-05-02T00:32:44.379Z,790.60
2023-05-02T00:33:44.339Z,783.90
2023-05-02T00:34:44.334Z,783.00
2023-05-02T00:35:44.323Z,773.80
2023-05-02T00:36:44.314Z,770.60
2023-05-02T00:37:44.292Z,766.80
2023-05-02T00:38:44.254Z,773.20
2023-05-02T00:39:44.246Z,777.60
2023-05-02T00:40:44.226Z,772.80
2023-05-02T00:41:44.277Z,769.40
2023-05-02T00:42:44.211Z,768.70
2023-05-02T00:43:44.231Z,766.50
2023-05-02T00:44:44.184Z,774.00
2023-05-02T00:45:44.196Z,767.30
2023-05-02T00:46:44.265Z,760.20
2023-05-02T00:47:44.206Z,757.60
2023-05-02T00:48:44.156Z,750.50
2023-05-02T00:49:44.142Z,754.30
2023-05-02T00:50:44.115Z,755.30
2023-05-02T00:51:44.152Z,759.50
2023-05-02T00:52:44.098Z,762.00
2023-05-02T00:53:44.117Z,745.10
2023-05-02T00:54:44.107Z,744.10
2023-05-02T00:55:44.067Z,740.00
2023-05-02T00:56:44.106Z,746.90
2023-05-02T00:57:44.089Z,742.70
2023-05-02T00:58:44.054Z,742.00
2023-05-02T00:59:44.050Z,739.40
2023-05-02T01:00:44.037Z,737.00
2023-05-02T01:01:44.117Z,734.50
2023-05-02T01:02:44.142Z,723.00
2023-05-02T01:03:44.038Z,727.20
2023-05-02T01:04:43.962Z,730.90
2023-05-02T01:05:43.968Z,739.60
2023-05-02T01:06:44.014Z,734.30
2023-05-02T01:07:43.958Z,728.40
2023-05-02T01:08:43.920Z,739.00
2023-05-02T01:09:43.931Z,743.10
2023-05-02T01:10:43.908Z,734.50
2023-05-02T01:11:43.933Z,738.80
2023-05-02T01:12:43.881Z,741.30
2023-05-02T01:13:43.867Z,737.10
2023-05-02T01:14:43.847Z,736.00
2023-05-02T01:15:43.896Z,733.20
2023-05-02T01:16:43.988Z,729.70
2023-05-02T01:17:43.863Z,727.40
2023-05-02T01:18:43.803Z,713.80
2023-05-02T01:19:43.787Z,720.00
2023-05-02T01:20:43.779Z,716.70
2023-05-02T01:21:43.834Z,722.00
2023-05-02T01:22:43.777Z,719.50
2023-05-02T01:23:43.744Z,725.10
2023-05-02T01:24:43.757Z,723.50
2023-05-02T01:25:43.729Z,724.20
2023-05-02T01:26:43.750Z,716.40
2023-05-02T01:27:43.735Z,715.20
2023-05-02T01:28:43.706Z,719.60
2023-05-02T01:29:43.680Z,710.20
2023-05-02T01:30:43.679Z,707.30
2023-05-02T01:31:43.833Z,706.60
2023-05-02T01:32:43.678Z,713.70
2023-05-02T01:33:43.654Z,700.50
2023-05-02T01:34:43.669Z,703.20
2023-05-02T01:35:43.631Z,703.70
2023-05-02T01:36:43.658Z,716.30
2023-05-02T01:37:43.607Z,718.40
2023-05-02T01:38:43.600Z,712.80
2023-05-02T01:39:43.582Z,708.00
2023-05-02T01:40:43.573Z,712.40
2023-05-02T01:41:43.594Z,705.80
2023-05-02T01:42:43.580Z,709.60
2023-05-02T01:43:43.549Z,710.40
2023-05-02T01:44:43.550Z,716.30
2023-05-02T01:45:43.493Z,701.30
2023-05-02T01:46:43.572Z,712.50
2023-05-02T01:47:43.545Z,700.70
2023-05-02T01:48:43.466Z,721.90
2023-05-02T01:49:43.479Z,710.10
2023-05-02T01:50:43.433Z,714.90
2023-05-02T01:51:43.509Z,706.20
2023-05-02T01:52:43.416Z,712.50
2023-05-02T01:53:43.425Z,714.80
2023-05-02T01:54:43.414Z,711.60
2023-05-02T01:55:43.403Z,709.00
2023-05-02T01:56:43.455Z,714.10
2023-05-02T01:57:43.415Z,719.60
2023-05-02T01:58:43.362Z,717.30
2023-05-02T01:59:43.385Z,708.40
2023-05-02T02:00:43.386Z,714.00
2023-05-02T02:01:43.602Z,718.60
2023-05-02T02:02:43.337Z,710.30
2023-05-02T02:03:43.371Z,717.50
2023-05-02T02:04:43.389Z,719.10
2023-05-02T02:05:43.308Z,724.60
2023-05-02T02:06:43.332Z,725.90
2023-05-02T02:07:43.268Z,708.30
2023-05-02T02:08:43.250Z,720.80
2023-05-02T02:09:43.259Z,723.30
2023-05-02T02:10:43.234Z,712.00
2023-05-02T02:11:43.271Z,716.90
2023-05-02T02:12:43.219Z,717.40
2023-05-02T02:13:43.219Z,710.60
2023-05-02T02:14:43.190Z,717.10
2023-05-02T02:15:43.181Z,717.40
2023-05-02T02:16:43.227Z,714.20
2023-05-02T02:17:43.170Z,718.30
2023-05-02T02:18:43.136Z,716.80
2023-05-02T02:19:43.123Z,725.40
2023-05-02T02:20:43.132Z,714.30
2023-05-02T02:21:43.151Z,717.90
2023-05-02T02:22:43.134Z,717.70
2023-05-02T02:23:43.092Z,726.80
2023-05-02T02:24:43.081Z,716.30
2023-05-02T02:25:43.101Z,714.80
2023-05-02T02:26:43.088Z,728.30
2023-05-02T02:27:43.049Z,721.10
2023-05-02T02:28:43.038Z,718.00
2023-05-02T02:29:43.053Z,726.70
2023-05-02T02:30:43.054Z,728.20
2023-05-02T02:31:43.039Z,728.10
2023-05-02T02:32:42.992Z,727.60
2023-05-02T02:33:42.955Z,727.40
2023-05-02T02:34:42.973Z,720.60
2023-05-02T02:35:42.934Z,723.00
2023-05-02T02:36:42.966Z,724.30
2023-05-02T02:37:42.919Z,727.60
2023-05-02T02:38:42.922Z,735.20
2023-05-02T02:39:42.895Z,734.60
2023-05-02T02:40:42.893Z,725.20
2023-05-02T02:41:43.074Z,735.50
2023-05-02T02:42:42.880Z,742.40
2023-05-02T02:43:42.890Z,741.90
2023-05-02T02:44:42.819Z,741.40
2023-05-02T02:45:42.819Z,739.50
2023-05-02T02:46:42.942Z,731.00
2023-05-02T02:47:42.941Z,728.30
2023-05-02T02:48:42.806Z,720.90
2023-05-02T02:49:42.794Z,727.40
2023-05-02T02:50:42.790Z,722.00
2023-05-02T02:51:42.762Z,711.80
2023-05-02T02:52:42.811Z,724.00
2023-05-02T02:53:42.754Z,736.60
2023-05-02T02:54:42.717Z,716.90
2023-05-02T02:55:42.731Z,717.70
2023-05-02T02:56:42.700Z,723.00
2023-05-02T02:57:42.730Z,720.40
2023-05-02T02:58:42.688Z,720.70
2023-05-02T02:59:42.674Z,718.10
2023-05-02T03:00:42.662Z,725.40
2023-05-02T03:01:42.659Z,723.40
2023-05-02T03:02:42.739Z,730.00
2023-05-02T03:03:42.647Z,730.20
2023-05-02T03:04:42.619Z,722.80
2023-05-02T03:05:42.602Z,715.90
2023-05-02T03:06:42.692Z,722.20
2023-05-02T03:07:42.660Z,719.60
2023-05-02T03:08:42.570Z,717.80
2023-05-02T03:09:42.577Z,718.90
2023-05-02T03:10:42.561Z,729.10
2023-05-02T03:11:42.532Z,724.30
2023-05-02T03:12:42.568Z,722.50
2023-05-02T03:13:42.487Z,716.20
2023-05-02T03:14:42.491Z,711.80
2023-05-02T03:15:42.500Z,719.80
2023-05-02T03:16:42.545Z,711.20
2023-05-02T03:17:42.582Z,717.30
2023-05-02T03:18:42.482Z,715.80
2023-05-02T03:19:42.513Z,714.90
2023-05-02T03:20:42.441Z,707.90
2023-05-02T03:21:42.426Z,710.80
2023-05-02T03:22:42.455Z,431.10
2023-05-02T03:23:42.419Z,512.40
2023-05-02T03:24:42.394Z,467.90
2023-05-02T03:25:42.380Z,727.50
2023-05-02T03:26:42.371Z,722.10
2023-05-02T03:27:42.393Z,720.40
2023-05-02T03:28:42.372Z,719.10
2023-05-02T03:29:42.338Z,719.80
2023-05-02T03:30:42.324Z,712.80
2023-05-02T03:31:42.424Z,719.90
2023-05-02T03:32:42.376Z,708.10
2023-05-02T03:33:42.281Z,706.70
2023-05-02T03:34:42.291Z,703.60
2023-05-02T03:35:42.251Z,712.90
2023-05-02T03:36:42.242Z,714.70
2023-05-02T03:37:42.282Z,720.70
2023-05-02T03:38:42.252Z,712.30
2023-05-02T03:39:42.230Z,705.70
2023-05-02T03:40:42.221Z,720.60
2023-05-02T03:41:42.175Z,713.50
2023-05-02T03:42:42.207Z,714.70
2023-05-02T03:43:42.148Z,384.80
2023-05-02T03:44:42.141Z,715.60
2023-05-02T03:45:42.157Z,716.10
2023-05-02T03:46:42.202Z,704.70
2023-05-02T03:47:42.197Z,445.40
2023-05-02T03:48:42.151Z,682.10
2023-05-02T03:49:42.117Z,736.60
2023-05-02T03:50:42.085Z,718.60
2023-05-02T03:51:42.080Z,722.80
2023-05-02T03:52:42.106Z,733.10
2023-05-02T03:53:42.086Z,728.90
2023-05-02T03:54:42.073Z,724.10
2023-05-02T03:55:42.051Z,725.30
2023-05-02T03:56:42.906Z,732.90
2023-05-02T03:57:42.047Z,735.10
2023-05-02T03:58:42.012Z,728.60
2023-05-02T03:59:41.973Z,736.00
2023-05-02T04:00:41.998Z,731.70
2023-05-02T04:01:42.000Z,726.10
2023-05-02T04:02:42.083Z,720.70
2023-05-02T04:03:41.996Z,707.40
2023-05-02T04:04:42.048Z,520.60
2023-05-02T04:05:41.917Z,727.40
2023-05-02T04:06:41.965Z,490.80
2023-05-02T04:07:41.933Z,324.90
2023-05-02T04:08:41.888Z,187.30
2023-05-02T04:09:41.891Z,735.80
2023-05-02T04:10:41.846Z,728.00
2023-05-02T04:11:41.857Z,724.80
2023-05-02T04:12:41.833Z,729.10
2023-05-02T04:13:41.863Z,716.80
2023-05-02T04:14:41.832Z,723.80
2023-05-02T04:15:41.798Z,716.40
2023-05-02T04:16:41.814Z,718.70
2023-05-02T04:17:41.813Z,712.40
2023-05-02T04:18:41.811Z,722.00
2023-05-02T04:19:41.740Z,729.30
2023-05-02T04:20:41.754Z,725.50
2023-05-02T04:21:41.738Z,395.90
2023-05-02T04:22:41.749Z,398.00
2023-05-02T04:23:41.763Z,453.30
2023-05-02T04:24:41.709Z,757.90
2023-05-02T04:25:41.691Z,761.10
2023-05-02T04:26:41.697Z,711.10
2023-05-02T04:27:41.677Z,736.80
2023-05-02T04:28:41.687Z,754.50
2023-05-02T04:29:41.635Z,737.80
2023-05-02T04:30:41.673Z,727.40
2023-05-02T04:31:41.611Z,736.40
2023-05-02T04:32:41.632Z,753.10
2023-05-02T04:33:41.633Z,767.10
2023-05-02T04:34:41.606Z,710.30
2023-05-02T04:35:41.576Z,746.60
2023-05-02T04:36:41.585Z,742.30
2023-05-02T04:37:41.557Z,752.90
2023-05-02T04:38:41.600Z,750.20
2023-05-02T04:39:41.564Z,746.70
2023-05-02T04:40:41.544Z,770.10
2023-05-02T04:41:41.524Z,768.30
2023-05-02T04:42:41.491Z,770.90
2023-05-02T04:43:41.525Z,777.30
2023-05-02T04:44:41.487Z,784.40
2023-05-02T04:45:41.474Z,790.60
2023-05-02T04:46:41.505Z,777.00
2023-05-02T04:47:41.528Z,774.20
2023-05-02T04:48:41.469Z,783.40
2023-05-02T04:49:41.406Z,776.40
2023-05-02T04:50:41.410Z,769.40
2023-05-02T04:51:41.383Z,782.20
2023-05-02T04:52:41.421Z,789.40
2023-05-02T04:53:41.417Z,787.30
2023-05-02T04:54:41.354Z,804.90
2023-05-02T04:55:41.363Z,777.20
2023-05-02T04:56:41.345Z,775.50
2023-05-02T04:57:41.330Z,786.20
2023-05-02T04:58:41.373Z,805.30
2023-05-02T04:59:41.316Z,838.10
2023-05-02T05:00:41.301Z,819.70
2023-05-02T05:01:41.353Z,811.80
2023-05-02T05:02:41.321Z,802.40
2023-05-02T05:03:41.415Z,811.40
2023-05-02T05:04:41.263Z,828.30
2023-05-02T05:05:41.261Z,732.40
2023-05-02T05:06:41.278Z,742.10
2023-05-02T05:07:41.225Z,697.40
2023-05-02T05:08:41.269Z,543.20
2023-05-02T05:09:41.209Z,488.70
2023-05-02T05:10:41.192Z,582.80
2023-05-02T05:11:41.151Z,481.60
2023-05-02T05:12:41.160Z,406.60
2023-05-02T05:13:41.328Z,444.00
2023-05-02T05:14:41.139Z,427.50
2023-05-02T05:15:41.125Z,289.80
2023-05-02T05:16:41.234Z,336.70
2023-05-02T05:17:41.132Z,331.40
2023-05-02T05:18:41.131Z,415.60
2023-05-02T05:19:41.146Z,461.60
2023-05-02T05:20:41.081Z,384.70
2023-05-02T05:21:41.067Z,368.50
2023-05-02T05:22:41.066Z,310.80
2023-05-02T05:23:41.033Z,398.80
2023-05-02T05:24:41.052Z,358.10
2023-05-02T05:25:41.527Z,305.40
2023-05-02T05:26:40.997Z,303.60
2023-05-02T05:27:41.143Z,80.20
2023-05-02T05:28:40.961Z,110.70
2023-05-02T05:29:41.021Z,102.20
2023-05-02T05:30:40.964Z,105.10
2023-05-02T05:31:40.995Z,102.70
2023-05-02T05:32:41.045Z,104.00
2023-05-02T05:33:40.994Z,112.50
2023-05-02T05:34:40.960Z,96.70
2023-05-02T05:35:40.901Z,119.90
2023-05-02T05:36:40.894Z,117.50
2023-05-02T05:37:40.859Z,141.50
2023-05-02T05:38:40.868Z,115.10
2023-05-02T05:39:40.916Z,92.70
2023-05-02T05:40:40.842Z,96.50
2023-05-02T05:41:40.832Z,80.00
2023-05-02T05:42:40.815Z,86.00
2023-05-02T05:43:40.846Z,75.20
2023-05-02T05:44:40.876Z,72.60
2023-05-02T05:45:40.797Z,100.30
2023-05-02T05:46:40.821Z,94.70
2023-05-02T05:47:40.872Z,83.50
2023-05-02T05:48:40.760Z,95.80
2023-05-02T05:49:40.777Z,98.30
2023-05-02T05:50:40.731Z,65.50
2023-05-02T05:51:40.728Z,88.40
2023-05-02T05:52:40.705Z,95.30
2023-05-02T05:53:40.719Z,80.00
2023-05-02T05:54:40.743Z,70.90
2023-05-02T05:55:42.181Z,108.00
2023-05-02T05:56:40.685Z,70.30
2023-05-02T05:57:40.660Z,86.00
2023-05-02T05:58:40.644Z,68.80
2023-05-02T05:59:40.680Z,84.10
2023-05-02T06:00:40.624Z,60.30
2023-05-02T06:01:40.599Z,86.30
2023-05-02T06:02:40.719Z,105.10
2023-05-02T06:03:40.753Z,145.60
2023-05-02T06:04:40.675Z,102.20
2023-05-02T06:05:40.569Z,148.70
2023-05-02T06:06:40.612Z,104.40
2023-05-02T06:07:40.539Z,99.50
2023-05-02T06:08:40.532Z,117.50
2023-05-02T06:09:40.545Z,106.20
2023-05-02T06:10:40.515Z,125.40
2023-05-02T06:11:40.493Z,142.70
2023-05-02T06:12:40.527Z,125.70
2023-05-02T06:13:40.458Z,122.40
2023-05-02T06:14:40.494Z,119.50
2023-05-02T06:15:40.500Z,110.90
2023-05-02T06:16:40.544Z,102.90
2023-05-02T06:17:40.511Z,112.60
2023-05-02T06:18:40.403Z,107.20
2023-05-02T06:19:40.451Z,91.40
2023-05-02T06:20:40.400Z,89.20
2023-05-02T06:21:40.398Z,83.80
2023-05-02T06:22:40.403Z,68.30
2023-05-02T06:23:41.233Z,77.30
2023-05-02T06:24:40.397Z,426.80
2023-05-02T06:25:40.326Z,233.50
2023-05-02T06:26:40.379Z,247.00
2023-05-02T06:27:40.373Z,91.70
2023-05-02T06:28:40.331Z,126.50
2023-05-02T06:29:40.361Z,102.40
2023-05-02T06:30:40.286Z,104.70
2023-05-02T06:31:40.311Z,81.10
2023-05-02T06:32:40.270Z,75.00
2023-05-02T06:33:40.259Z,72.50
2023-05-02T06:34:40.270Z,60.10
2023-05-02T06:35:40.246Z,95.60
2023-05-02T06:36:40.219Z,66.30
2023-05-02T06:37:40.229Z,79.70
2023-05-02T06:38:40.178Z,64.90
2023-05-02T06:39:40.217Z,65.30
2023-05-02T06:40:40.159Z,52.10
2023-05-02T06:41:40.170Z,74.70
2023-05-02T06:42:40.155Z,74.50
2023-05-02T06:43:40.145Z,111.80
2023-05-02T06:44:40.153Z,94.50
2023-05-02T06:45:40.126Z,82.60
2023-05-02T06:46:40.162Z,61.40
2023-05-02T06:47:40.163Z,61.10
2023-05-02T06:48:40.085Z,60.70
2023-05-02T06:49:40.114Z,61.50
2023-05-02T06:50:40.062Z,56.10
2023-05-02T06:51:40.066Z,54.90
2023-05-02T06:52:40.041Z,69.80
2023-05-02T06:53:40.056Z,64.50
2023-05-02T06:54:40.180Z,47.50
2023-05-02T06:55:39.992Z,56.70
2023-05-02T06:56:39.987Z,52.50
2023-05-02T06:57:40.022Z,73.20
2023-05-02T06:58:39.995Z,54.10
2023-05-02T06:59:39.977Z,76.90
2023-05-02T07:00:40.013Z,76.10
2023-05-02T07:01:39.995Z,57.90
2023-05-02T07:02:39.963Z,72.40
2023-05-02T07:03:39.998Z,51.30
2023-05-02T07:04:39.989Z,47.90
2023-05-02T07:05:39.934Z,42.90
2023-05-02T07:06:39.890Z,81.50
2023-05-02T07:07:39.872Z,63.20
2023-05-02T07:08:39.837Z,47.90
2023-05-02T07:09:39.873Z,67.50
2023-05-02T07:10:39.885Z,56.20
2023-05-02T07:11:39.837Z,65.50
2023-05-02T07:12:39.831Z,82.40
2023-05-02T07:13:39.827Z,51.20
2023-05-02T07:14:39.786Z,59.70
2023-05-02T07:15:39.792Z,75.50
2023-05-02T07:16:39.832Z,74.70
2023-05-02T07:17:39.844Z,69.60
2023-05-02T07:18:39.748Z,248.10
2023-05-02T07:19:39.748Z,191.00
2023-05-02T07:20:39.758Z,210.50
2023-05-02T07:21:39.694Z,334.20
2023-05-02T07:22:39.691Z,258.90
2023-05-02T07:23:39.703Z,432.70
2023-05-02T07:24:39.690Z,233.70
2023-05-02T07:25:39.701Z,252.40
2023-05-02T07:26:39.676Z,191.50
2023-05-02T07:27:39.632Z,188.20
2023-05-02T07:28:39.629Z,167.10
2023-05-02T07:29:39.630Z,44.30
2023-05-02T07:30:39.660Z,73.50
2023-05-02T07:31:39.648Z,38.30
2023-05-02T07:32:39.661Z,40.30
2023-05-02T07:33:39.560Z,55.80
2023-05-02T07:34:39.548Z,45.00
2023-05-02T07:35:39.597Z,72.70
2023-05-02T07:36:39.526Z,55.20
2023-05-02T07:37:39.531Z,39.10
2023-05-02T07:38:39.515Z,38.40
2023-05-02T07:39:39.531Z,28.30
2023-05-02T07:40:39.539Z,30.00
2023-05-02T07:41:39.511Z,40.60
2023-05-02T07:42:39.482Z,58.90
2023-05-02T07:43:39.518Z,44.10
2023-05-02T07:44:39.473Z,45.90
2023-05-02T07:45:39.486Z,42.60
2023-05-02T07:46:39.524Z,47.30
2023-05-02T07:47:39.468Z,40.00
2023-05-02T07:48:39.421Z,44.50
2023-05-02T07:49:39.421Z,51.50
2023-05-02T07:50:39.429Z,65.80
2023-05-02T07:51:39.426Z,58.60
2023-05-02T07:52:39.380Z,68.60
2023-05-02T07:53:39.353Z,178.20
2023-05-02T07:54:39.348Z,402.00
2023-05-02T07:55:39.375Z,467.90
2023-05-02T07:56:39.367Z,369.60
2023-05-02T07:57:39.326Z,384.50
2023-05-02T07:58:39.302Z,336.20
2023-05-02T07:59:39.303Z,184.10
2023-05-02T08:00:39.340Z,237.00
2023-05-02T08:01:39.277Z,317.00
2023-05-02T08:02:39.294Z,401.20
2023-05-02T08:03:39.391Z,369.30
2023-05-02T08:04:39.279Z,288.00
2023-05-02T08:05:39.261Z,263.60
2023-05-02T08:06:39.290Z,302.40
2023-05-02T08:07:39.225Z,242.90
2023-05-02T08:08:39.180Z,385.90
2023-05-02T08:09:39.178Z,389.40
2023-05-02T08:10:39.213Z,134.90
2023-05-02T08:11:39.167Z,236.60
2023-05-02T08:12:39.140Z,109.90
2023-05-02T08:13:39.155Z,122.20
2023-05-02T08:14:39.139Z,196.20
2023-05-02T08:15:39.229Z,45.00
2023-05-02T08:16:39.174Z,46.10
2023-05-02T08:17:39.151Z,46.40
2023-05-02T08:18:39.081Z,39.40
2023-05-02T08:19:39.076Z,48.70
2023-05-02T08:20:39.096Z,55.70
2023-05-02T08:21:39.064Z,63.00
2023-05-02T08:22:39.052Z,63.00
2023-05-02T08:23:39.012Z,56.50
2023-05-02T08:24:39.018Z,50.70
2023-05-02T08:25:39.038Z,51.20
2023-05-02T08:26:38.974Z,56.20
2023-05-02T08:27:38.984Z,49.50
2023-05-02T08:28:38.993Z,48.90
2023-05-02T08:29:38.968Z,48.90
2023-05-02T08:30:38.962Z,41.40
2023-05-02T08:31:39.000Z,42.70
2023-05-02T08:32:38.935Z,39.20
2023-05-02T08:33:38.900Z,34.90
2023-05-02T08:34:38.905Z,39.80
2023-05-02T08:35:38.890Z,61.30
2023-05-02T08:36:38.912Z,44.60
2023-05-02T08:37:38.865Z,47.60
2023-05-02T08:38:38.839Z,32.60
2023-05-02T08:39:38.848Z,37.90
2023-05-02T08:40:42.804Z,36.00
2023-05-02T08:41:38.873Z,36.60
2023-05-02T08:42:38.798Z,30.50
2023-05-02T08:43:38.803Z,41.40
2023-05-02T08:44:38.796Z,57.20
2023-05-02T08:45:38.785Z,65.20
2023-05-02T08:46:38.826Z,57.80
2023-05-02T08:47:38.808Z,56.70
2023-05-02T08:48:38.767Z,74.70
2023-05-02T08:49:38.727Z,54.80
2023-05-02T08:50:38.713Z,62.60
2023-05-02T08:51:40.339Z,112.50
2023-05-02T08:52:38.707Z,153.10
2023-05-02T08:53:38.699Z,164.70
2023-05-02T08:54:38.721Z,53.30
2023-05-02T08:55:38.658Z,60.50
2023-05-02T08:56:38.686Z,54.80
2023-05-02T08:57:38.621Z,58.90
2023-05-02T08:58:38.613Z,68.90
2023-05-02T08:59:38.625Z,60.60
2023-05-02T09:00:38.602Z,67.40
2023-05-02T09:01:38.734Z,58.00
2023-05-02T09:02:38.661Z,67.70
2023-05-02T09:03:38.593Z,85.60
2023-05-02T09:04:38.748Z,104.00
2023-05-02T09:05:38.573Z,86.50
2023-05-02T09:06:38.624Z,45.30
2023-05-02T09:07:38.533Z,46.50
2023-05-02T09:08:38.556Z,56.80
2023-05-02T09:09:38.499Z,44.30
2023-05-02T09:10:38.502Z,49.40
2023-05-02T09:11:38.569Z,50.30
2023-05-02T09:12:38.484Z,65.50
2023-05-02T09:13:38.462Z,46.60
2023-05-02T09:14:38.449Z,46.80
2023-05-02T09:15:38.421Z,51.20
2023-05-02T09:16:38.514Z,55.20
2023-05-02T09:17:38.472Z,60.70
2023-05-02T09:18:38.384Z,64.60
2023-05-02T09:19:38.442Z,65.40
2023-05-02T09:20:38.374Z,170.00
2023-05-02T09:21:38.418Z,163.70
2023-05-02T09:22:38.353Z,184.90
2023-05-02T09:23:38.356Z,176.60
2023-05-02T09:24:38.356Z,47.90
2023-05-02T09:25:38.315Z,53.00
2023-05-02T09:26:38.338Z,43.40
2023-05-02T09:27:38.295Z,60.50
2023-05-02T09:28:38.314Z,68.00
2023-05-02T09:29:38.304Z,61.90
2023-05-02T09:30:38.295Z,219.70
2023-05-02T09:32:38.262Z,64.20
2023-05-02T09:33:38.225Z,110.10
2023-05-02T09:34:38.263Z,57.50
2023-05-02T09:35:38.208Z,99.00
2023-05-02T09:36:38.213Z,117.20
2023-05-02T09:37:38.180Z,111.90
2023-05-02T09:38:38.191Z,56.20
2023-05-02T09:39:38.205Z,171.90
2023-05-02T09:40:38.152Z,138.50
2023-05-02T09:41:38.131Z,144.90
2023-05-02T09:42:38.229Z,131.30
2023-05-02T09:43:38.123Z,88.50
2023-05-02T09:44:38.148Z,137.90
2023-05-02T09:45:38.114Z,56.60
2023-05-02T09:46:38.222Z,137.80
2023-05-02T09:47:38.241Z,58.50
2023-05-02T09:48:38.063Z,88.20
2023-05-02T09:49:38.055Z,114.60
2023-05-02T09:50:38.173Z,79.10
2023-05-02T09:51:38.043Z,85.20
2023-05-02T09:52:38.060Z,86.60
2023-05-02T09:53:38.021Z,91.40
2023-05-02T09:54:37.995Z,46.30
2023-05-02T09:55:37.970Z,44.30
2023-05-02T09:56:37.997Z,86.90
2023-05-02T09:57:38.036Z,58.30
2023-05-02T09:58:37.953Z,162.20
2023-05-02T09:59:37.940Z,61.20
2023-05-02T10:00:37.928Z,53.10
2023-05-02T10:01:38.000Z,43.40
2023-05-02T10:02:38.013Z,42.60
2023-05-02T10:03:38.041Z,55.70
2023-05-02T10:04:38.096Z,54.00
2023-05-02T10:05:37.920Z,147.80
2023-05-02T10:06:37.949Z,105.50
2023-05-02T10:07:37.909Z,114.50
2023-05-02T10:08:37.833Z,254.20
2023-05-02T10:09:37.840Z,324.60
2023-05-02T10:10:37.832Z,291.10
2023-05-02T10:11:37.811Z,274.20
2023-05-02T10:12:37.874Z,298.00
2023-05-02T10:13:37.795Z,285.00
2023-05-02T10:14:37.782Z,377.00
2023-05-02T10:15:37.850Z,341.90
2023-05-02T10:16:37.753Z,475.50
2023-05-02T10:17:37.831Z,375.00
2023-05-02T10:18:37.718Z,398.80
2023-05-02T10:19:37.721Z,409.00
2023-05-02T10:20:37.787Z,454.60
2023-05-02T10:21:37.683Z,364.40
2023-05-02T10:22:37.740Z,450.20
2023-05-02T10:23:37.678Z,480.80
2023-05-02T10:24:37.682Z,504.10
2023-05-02T10:25:37.683Z,517.50
2023-05-02T10:26:37.669Z,418.10
2023-05-02T10:27:37.686Z,211.50
2023-05-02T10:28:37.621Z,297.60
2023-05-02T10:29:37.642Z,352.20
2023-05-02T10:30:37.615Z,173.40
2023-05-02T10:31:37.765Z,126.50
2023-05-02T10:32:37.694Z,183.10
2023-05-02T10:33:37.570Z,196.90
2023-05-02T10:34:37.580Z,167.10
2023-05-02T10:35:37.539Z,295.80
2023-05-02T10:36:37.532Z,234.80
2023-05-02T10:37:37.578Z,229.30
2023-05-02T10:38:37.514Z,198.30
2023-05-02T10:39:38.356Z,243.00
2023-05-02T10:40:37.474Z,217.20
2023-05-02T10:41:37.477Z,457.40
2023-05-02T10:42:37.504Z,432.00
2023-05-02T10:43:37.476Z,545.00
2023-05-02T10:44:37.445Z,553.80
2023-05-02T10:45:37.451Z,475.80
2023-05-02T10:46:37.457Z,408.90
2023-05-02T10:47:37.456Z,464.90
2023-05-02T10:48:37.376Z,464.30
2023-05-02T10:49:37.412Z,411.10
2023-05-02T10:50:37.365Z,476.60
2023-05-02T10:51:37.354Z,483.80
2023-05-02T10:52:37.372Z,499.80
2023-05-02T10:53:37.327Z,387.70
2023-05-02T10:54:37.332Z,326.00
2023-05-02T10:55:37.317Z,377.10
2023-05-02T10:56:37.413Z,377.30
2023-05-02T10:57:37.295Z,282.30
2023-05-02T10:58:37.320Z,417.20
2023-05-02T10:59:37.282Z,385.90
2023-05-02T11:00:37.358Z,423.90
2023-05-02T11:01:37.243Z,263.60
2023-05-02T11:02:37.344Z,392.90
2023-05-02T11:03:37.280Z,247.50
2023-05-02T11:04:37.231Z,234.30
2023-05-02T11:05:37.240Z,247.70
2023-05-02T11:06:37.230Z,69.70
2023-05-02T11:07:37.211Z,65.40
2023-05-02T11:08:37.217Z,66.40
2023-05-02T11:09:37.156Z,35.50
2023-05-02T11:10:37.163Z,34.20
2023-05-02T11:11:37.137Z,45.00
2023-05-02T11:12:37.118Z,91.00
2023-05-02T11:13:37.166Z,98.70
2023-05-02T11:14:37.113Z,74.00
2023-05-02T11:15:37.070Z,36.90
2023-05-02T11:16:37.136Z,87.00
2023-05-02T11:17:37.098Z,85.20
2023-05-02T11:18:37.095Z,66.40
2023-05-02T11:19:37.044Z,85.80
2023-05-02T11:20:37.027Z,66.30
2023-05-02T11:21:37.020Z,59.60
2023-05-02T11:22:37.003Z,39.30
2023-05-02T11:23:37.070Z,41.90
2023-05-02T11:24:36.997Z,52.50
2023-05-02T11:25:36.983Z,69.80
2023-05-02T11:26:36.967Z,41.00
2023-05-02T11:27:36.989Z,64.40
2023-05-02T11:28:37.000Z,208.30
2023-05-02T11:29:36.932Z,56.80
2023-05-02T11:30:36.937Z,84.30
2023-05-02T11:31:36.924Z,280.50
2023-05-02T11:32:37.797Z,371.30
2023-05-02T11:33:37.094Z,369.30
2023-05-02T11:34:36.898Z,471.20
2023-05-02T11:35:36.894Z,465.00
2023-05-02T11:36:36.976Z,376.30
2023-05-02T11:37:36.838Z,460.00
2023-05-02T11:38:36.846Z,367.30
2023-05-02T11:39:36.838Z,420.30
2023-05-02T11:40:36.827Z,432.50
2023-05-02T11:41:36.803Z,525.60
2023-05-02T11:42:36.803Z,382.70
2023-05-02T11:43:36.766Z,386.40
2023-05-02T11:44:36.798Z,372.30
2023-05-02T11:45:36.738Z,227.90
2023-05-02T11:46:36.852Z,51.10
2023-05-02T11:47:36.751Z,42.60
2023-05-02T11:48:36.717Z,67.80
2023-05-02T11:49:36.768Z,202.20
2023-05-02T11:50:36.856Z,48.00
2023-05-02T11:51:36.680Z,31.70
2023-05-02T11:52:36.684Z,33.10
2023-05-02T11:53:36.674Z,42.40
2023-05-02T11:54:36.698Z,60.20
2023-05-02T11:55:36.629Z,199.90
2023-05-02T11:56:36.643Z,35.80
2023-05-02T11:57:36.609Z,34.60
2023-05-02T11:58:36.677Z,55.90
2023-05-02T11:59:36.706Z,94.50
2023-05-02T12:00:36.584Z,128.90
2023-05-02T12:01:36.594Z,97.80
2023-05-02T12:02:36.664Z,74.40
2023-05-02T12:03:36.698Z,47.20
2023-05-02T12:04:36.548Z,93.60
2023-05-02T12:05:36.572Z,42.80
2023-05-02T12:06:36.543Z,55.20
2023-05-02T12:07:36.535Z,77.00
2023-05-02T12:08:36.565Z,88.50
2023-05-02T12:09:36.494Z,37.40
2023-05-02T12:10:36.482Z,90.10
2023-05-02T12:11:36.456Z,34.30
2023-05-02T12:12:36.459Z,60.10
2023-05-02T12:13:36.455Z,115.70
2023-05-02T12:14:36.539Z,33.70
2023-05-02T12:15:36.433Z,73.90
2023-05-02T12:16:36.435Z,107.10
2023-05-02T12:17:36.415Z,87.20
2023-05-02T12:18:36.400Z,49.10
2023-05-02T12:19:36.423Z,56.40
2023-05-02T12:20:36.375Z,120.60
2023-05-02T12:21:36.385Z,59.10
2023-05-02T12:22:36.362Z,67.20
2023-05-02T12:23:37.537Z,51.70
2023-05-02T12:24:36.395Z,162.30
2023-05-02T12:25:36.322Z,41.70
2023-05-02T12:26:36.305Z,37.40
2023-05-02T12:27:36.281Z,38.30
2023-05-02T12:28:36.313Z,104.60
2023-05-02T12:29:36.276Z,72.30
2023-05-02T12:30:36.295Z,331.40
2023-05-02T12:31:36.296Z,209.80
2023-05-02T12:32:36.274Z,231.70
2023-05-02T12:33:36.293Z,359.30
2023-05-02T12:34:36.227Z,371.60
2023-05-02T12:35:36.204Z,424.10
2023-05-02T12:36:36.221Z,306.00
2023-05-02T12:37:36.184Z,407.60